sensor_id;sensor_type;location;lat;lon;timestamp;pressure;altitude;pressure_sealevel;temperature;humidity
68075;BME280;54864;52.002;5.468;2023-05-19T00:00:50;102593.16;;;10.46;70.59
68075;BME280;54864;52.002;5.468;2023-05-19T00:01:52;102591.47;;;10.42;70.43
68075;BME280;54864;52.002;5.468;2023-05-19T00:02:54;102591.56;;;10.35;70.58
68075;BME280;54864;52.002;5.468;2023-05-19T00:03:57;102595.94;;;10.34;70.77
68075;BME280;54864;52.002;5.468;2023-05-19T00:05:02;102594.38;;;10.23;70.97
68075;BME280;54864;52.002;5.468;2023-05-19T00:06:07;102595.19;;;10.28;71.00
68075;BME280;54864;52.002;5.468;2023-05-19T00:07:09;102595.00;;;10.38;71.02
68075;BME280;54864;52.002;5.468;2023-05-19T00:08:14;102588.78;;;10.44;70.66
68075;BME280;54864;52.002;5.468;2023-05-19T00:09:16;102604.72;;;10.35;71.13
68075;BME280;54864;52.002;5.468;2023-05-19T00:10:18;102598.63;;;10.33;70.81
68075;BME280;54864;52.002;5.468;2023-05-19T00:11:20;102597.00;;;10.24;71.09
68075;BME280;54864;52.002;5.468;2023-05-19T00:12:29;102596.09;;;10.25;71.24
68075;BME280;54864;52.002;5.468;2023-05-19T00:13:31;102596.91;;;10.29;71.15
68075;BME280;54864;52.002;5.468;2023-05-19T00:14:35;102594.22;;;10.33;71.04
68075;BME280;54864;52.002;5.468;2023-05-19T00:15:39;102595.88;;;10.39;71.07
68075;BME280;54864;52.002;5.468;2023-05-19T00:16:40;102595.00;;;10.38;71.02
68075;BME280;54864;52.002;5.468;2023-05-19T00:17:42;102594.06;;;10.44;70.61
68075;BME280;54864;52.002;5.468;2023-05-19T00:18:43;102595.00;;;10.40;70.04
68075;BME280;54864;52.002;5.468;2023-05-19T00:19:46;102587.91;;;10.45;70.34
68075;BME280;54864;52.002;5.468;2023-05-19T00:20:48;102587.88;;;10.46;69.90
68075;BME280;54864;52.002;5.468;2023-05-19T00:21:54;102587.03;;;10.44;70.45
68075;BME280;54864;52.002;5.468;2023-05-19T00:22:55;102582.63;;;10.45;70.22
68075;BME280;54864;52.002;5.468;2023-05-19T00:23:57;102590.59;;;10.39;70.48
68075;BME280;54864;52.002;5.468;2023-05-19T00:24:58;102582.88;;;10.28;70.79
68075;BME280;54864;52.002;5.468;2023-05-19T00:26:00;102582.19;;;10.14;71.16
68075;BME280;54864;52.002;5.468;2023-05-19T00:27:00;102581.19;;;10.24;71.46
68075;BME280;54864;52.002;5.468;2023-05-19T00:28:02;102582.84;;;10.30;70.98
68075;BME280;54864;52.002;5.468;2023-05-19T00:29:03;102576.06;;;10.12;71.56
68075;BME280;54864;52.002;5.468;2023-05-19T00:30:07;102576.00;;;10.16;71.66
68075;BME280;54864;52.002;5.468;2023-05-19T00:31:09;102582.97;;;10.22;71.12
68075;BME280;54864;52.002;5.468;2023-05-19T00:32:11;102575.94;;;10.20;71.07
68075;BME280;54864;52.002;5.468;2023-05-19T00:33:12;102571.78;;;10.05;71.85
68075;BME280;54864;52.002;5.468;2023-05-19T00:34:13;102577.88;;;10.08;71.95
68075;BME280;54864;52.002;5.468;2023-05-19T00:35:14;102573.38;;;10.15;71.62
68075;BME280;54864;52.002;5.468;2023-05-19T00:36:19;102568.09;;;10.16;71.60
68075;BME280;54864;52.002;5.468;2023-05-19T00:37:19;102573.53;;;10.06;71.75
68075;BME280;54864;52.002;5.468;2023-05-19T00:38:22;102571.81;;;10.02;72.14
68075;BME280;54864;52.002;5.468;2023-05-19T00:39:23;102575.13;;;10.16;72.14
68075;BME280;54864;52.002;5.468;2023-05-19T00:40:25;102575.16;;;10.13;71.92
68075;BME280;54864;52.002;5.468;2023-05-19T00:41:27;102565.50;;;10.13;72.12
68075;BME280;54864;52.002;5.468;2023-05-19T00:42:28;102571.56;;;10.20;71.77
68075;BME280;54864;52.002;5.468;2023-05-19T00:43:33;102573.31;;;10.20;71.47
68075;BME280;54864;52.002;5.468;2023-05-19T00:44:36;102570.66;;;10.23;71.65
68075;BME280;54864;52.002;5.468;2023-05-19T00:45:39;102582.13;;;10.17;71.41
68075;BME280;54864;52.002;5.468;2023-05-19T00:46:42;102576.91;;;10.14;72.30
68075;BME280;54864;52.002;5.468;2023-05-19T00:47:43;102565.38;;;10.24;71.71
68075;BME280;54864;52.002;5.468;2023-05-19T00:48:45;102576.09;;;10.10;71.71
68075;BME280;54864;52.002;5.468;2023-05-19T00:49:45;102575.25;;;10.08;71.56
68075;BME280;54864;52.002;5.468;2023-05-19T00:50:48;102569.91;;;10.13;72.09
68075;BME280;54864;52.002;5.468;2023-05-19T00:51:49;102573.56;;;10.04;71.77
68075;BME280;54864;52.002;5.468;2023-05-19T00:52:51;102570.88;;;10.06;71.67
68075;BME280;54864;52.002;5.468;2023-05-19T00:53:52;102569.09;;;10.08;72.00
68075;BME280;54864;52.002;5.468;2023-05-19T00:54:55;102570.84;;;10.09;71.90
68075;BME280;54864;52.002;5.468;2023-05-19T00:55:57;102569.91;;;10.13;72.31
68075;BME280;54864;52.002;5.468;2023-05-19T00:56:59;102572.72;;;10.01;72.87
68075;BME280;54864;52.002;5.468;2023-05-19T00:58:00;102572.84;;;9.93;72.54
68075;BME280;54864;52.002;5.468;2023-05-19T00:59:05;102571.19;;;9.86;72.69
68075;BME280;54864;52.002;5.468;2023-05-19T01:00:07;102575.59;;;9.85;72.80
68075;BME280;54864;52.002;5.468;2023-05-19T01:01:09;102566.69;;;9.94;72.53
68075;BME280;54864;52.002;5.468;2023-05-19T01:02:12;102569.25;;;9.99;72.69
68075;BME280;54864;52.002;5.468;2023-05-19T01:03:15;102570.19;;;9.95;72.63
68075;BME280;54864;52.002;5.468;2023-05-19T01:04:20;102573.72;;;9.92;72.64
68075;BME280;54864;52.002;5.468;2023-05-19T01:05:25;102572.78;;;9.98;72.32
68075;BME280;54864;52.002;5.468;2023-05-19T01:06:26;102572.88;;;9.90;72.69
68075;BME280;54864;52.002;5.468;2023-05-19T01:07:29;102571.09;;;9.92;72.86
68075;BME280;54864;52.002;5.468;2023-05-19T01:08:30;102571.03;;;9.97;72.72
68075;BME280;54864;52.002;5.468;2023-05-19T01:09:32;102570.16;;;9.96;72.48
68075;BME280;54864;52.002;5.468;2023-05-19T01:10:33;102565.75;;;9.98;72.52
68075;BME280;54864;52.002;5.468;2023-05-19T01:11:35;102570.22;;;9.92;72.63
68075;BME280;54864;52.002;5.468;2023-05-19T01:12:39;102577.16;;;9.97;73.02
68075;BME280;54864;52.002;5.468;2023-05-19T01:13:43;102572.78;;;9.98;72.65
68075;BME280;54864;52.002;5.468;2023-05-19T01:14:45;102573.81;;;9.86;72.70
68075;BME280;54864;52.002;5.468;2023-05-19T01:15:57;102574.75;;;9.82;73.28
68075;BME280;54864;52.002;5.468;2023-05-19T01:17:04;102569.44;;;9.85;73.54
68075;BME280;54864;52.002;5.468;2023-05-19T01:18:13;102573.66;;;9.97;73.36
68075;BME280;54864;52.002;5.468;2023-05-19T01:19:30;102571.94;;;9.94;72.91
68075;BME280;54864;52.002;5.468;2023-05-19T01:20:40;102577.28;;;9.90;73.01
68075;BME280;54864;52.002;5.468;2023-05-19T01:22:11;102577.31;;;9.87;73.53
68075;BME280;54864;52.002;5.468;2023-05-19T01:23:27;102579.91;;;9.90;73.34
68075;BME280;54864;52.002;5.468;2023-05-19T01:25:03;102577.41;;;9.80;72.85
68075;BME280;54864;52.002;5.468;2023-05-19T01:28:07;102573.03;;;9.79;73.56
68075;BME280;54864;52.002;5.468;2023-05-19T01:29:27;102574.66;;;9.88;72.94
68075;BME280;54864;52.002;5.468;2023-05-19T01:30:32;102575.56;;;9.87;72.93
68075;BME280;54864;52.002;5.468;2023-05-19T01:31:35;102568.63;;;9.80;73.16
68075;BME280;54864;52.002;5.468;2023-05-19T01:32:40;102575.69;;;9.75;73.73
68075;BME280;54864;52.002;5.468;2023-05-19T01:33:42;102567.84;;;9.72;73.92
68075;BME280;54864;52.002;5.468;2023-05-19T01:34:45;102568.75;;;9.69;73.84
68075;BME280;54864;52.002;5.468;2023-05-19T01:35:48;102566.94;;;9.73;74.07
68075;BME280;54864;52.002;5.468;2023-05-19T01:36:53;102570.44;;;9.78;73.66
68075;BME280;54864;52.002;5.468;2023-05-19T01:37:57;102561.59;;;9.82;73.40
68075;BME280;54864;52.002;5.468;2023-05-19T01:39:02;102564.19;;;9.83;73.63
68075;BME280;54864;52.002;5.468;2023-05-19T01:40:05;102564.25;;;9.79;73.35
68075;BME280;54864;52.002;5.468;2023-05-19T01:41:07;102558.19;;;9.71;73.89
68075;BME280;54864;52.002;5.468;2023-05-19T01:42:13;102566.06;;;9.74;74.06
68075;BME280;54864;52.002;5.468;2023-05-19T01:43:17;102561.66;;;9.74;73.49
68075;BME280;54864;52.002;5.468;2023-05-19T01:44:19;102560.09;;;9.61;73.82
68075;BME280;54864;52.002;5.468;2023-05-19T01:45:22;102564.41;;;9.67;73.88
68075;BME280;54864;52.002;5.468;2023-05-19T01:46:25;102557.38;;;9.67;74.05
68075;BME280;54864;52.002;5.468;2023-05-19T01:47:27;102560.09;;;9.61;74.90
68075;BME280;54864;52.002;5.468;2023-05-19T01:48:28;102566.28;;;9.57;74.25
68075;BME280;54864;52.002;5.468;2023-05-19T01:49:30;102563.69;;;9.56;75.07
68075;BME280;54864;52.002;5.468;2023-05-19T01:50:32;102559.25;;;9.59;74.70
68075;BME280;54864;52.002;5.468;2023-05-19T01:51:34;102562.69;;;9.63;74.44
68075;BME280;54864;52.002;5.468;2023-05-19T01:52:38;102551.25;;;9.67;75.07
68075;BME280;54864;52.002;5.468;2023-05-19T01:53:39;102553.03;;;9.65;74.56
68075;BME280;54864;52.002;5.468;2023-05-19T01:54:40;102551.22;;;9.68;74.56
68075;BME280;54864;52.002;5.468;2023-05-19T01:55:43;102557.50;;;9.58;75.09
68075;BME280;54864;52.002;5.468;2023-05-19T01:56:51;102560.16;;;9.57;74.79
68075;BME280;54864;52.002;5.468;2023-05-19T01:58:01;102550.47;;;9.59;75.52
68075;BME280;54864;52.002;5.468;2023-05-19T01:59:26;102553.97;;;9.59;74.85
68075;BME280;54864;52.002;5.468;2023-05-19T02:00:42;102548.78;;;9.53;74.93
68075;BME280;54864;52.002;5.468;2023-05-19T02:01:51;102554.19;;;9.42;75.44
68075;BME280;54864;52.002;5.468;2023-05-19T02:02:57;102549.72;;;9.49;75.79
68075;BME280;54864;52.002;5.468;2023-05-19T02:04:16;102547.00;;;9.55;75.08
68075;BME280;54864;52.002;5.468;2023-05-19T02:05:22;102555.97;;;9.40;75.68
68075;BME280;54864;52.002;5.468;2023-05-19T02:06:38;102554.28;;;9.36;76.36
68075;BME280;54864;52.002;5.468;2023-05-19T02:07:43;102552.41;;;9.44;75.95
68075;BME280;54864;52.002;5.468;2023-05-19T02:08:56;102554.94;;;9.53;74.99
68075;BME280;54864;52.002;5.468;2023-05-19T02:10:04;102551.41;;;9.54;75.28
68075;BME280;54864;52.002;5.468;2023-05-19T02:11:13;102552.34;;;9.50;75.72
68075;BME280;54864;52.002;5.468;2023-05-19T02:12:18;102549.91;;;9.35;75.74
68075;BME280;54864;52.002;5.468;2023-05-19T02:13:23;102555.06;;;9.43;76.20
68075;BME280;54864;52.002;5.468;2023-05-19T02:14:29;102552.63;;;9.29;75.65
68075;BME280;54864;52.002;5.468;2023-05-19T02:15:36;102550.06;;;9.23;76.29
68075;BME280;54864;52.002;5.468;2023-05-19T02:16:39;102544.66;;;9.34;75.93
68075;BME280;54864;52.002;5.468;2023-05-19T02:17:49;102547.28;;;9.35;76.03
68075;BME280;54864;52.002;5.468;2023-05-19T02:18:51;102552.47;;;9.41;75.63
68075;BME280;54864;52.002;5.468;2023-05-19T02:19:53;102548.09;;;9.40;75.99
68075;BME280;54864;52.002;5.468;2023-05-19T02:20:53;102553.38;;;9.37;75.67
68075;BME280;54864;52.002;5.468;2023-05-19T02:21:55;102550.94;;;9.24;75.99
68075;BME280;54864;52.002;5.468;2023-05-19T02:22:59;102548.47;;;9.07;76.94
68075;BME280;54864;52.002;5.468;2023-05-19T02:24:00;102554.59;;;9.10;76.90
68075;BME280;54864;52.002;5.468;2023-05-19T02:25:01;102549.19;;;9.23;77.29
68075;BME280;54864;52.002;5.468;2023-05-19T02:26:06;102549.09;;;9.29;76.73
68075;BME280;54864;52.002;5.468;2023-05-19T02:27:08;102546.50;;;9.26;77.19
68075;BME280;54864;52.002;5.468;2023-05-19T02:28:09;102545.63;;;9.27;77.25
68075;BME280;54864;52.002;5.468;2023-05-19T02:29:10;102546.59;;;9.18;77.15
68075;BME280;54864;52.002;5.468;2023-05-19T02:30:12;102542.03;;;9.32;76.73
68075;BME280;54864;52.002;5.468;2023-05-19T02:31:13;102547.41;;;9.25;77.15
68075;BME280;54864;52.002;5.468;2023-05-19T02:32:16;102547.41;;;9.23;76.53
68075;BME280;54864;52.002;5.468;2023-05-19T02:33:24;102541.22;;;9.27;76.95
68075;BME280;54864;52.002;5.468;2023-05-19T02:34:26;102547.47;;;9.18;77.29
68075;BME280;54864;52.002;5.468;2023-05-19T02:35:27;102540.50;;;9.14;77.07
68075;BME280;54864;52.002;5.468;2023-05-19T02:36:32;102539.63;;;9.14;77.75
68075;BME280;54864;52.002;5.468;2023-05-19T02:37:34;102537.91;;;9.08;77.58
68075;BME280;54864;52.002;5.468;2023-05-19T02:38:36;102534.53;;;8.99;77.99
68075;BME280;54864;52.002;5.468;2023-05-19T02:39:39;102536.16;;;9.09;78.28
68075;BME280;54864;52.002;5.468;2023-05-19T02:40:41;102531.84;;;9.02;77.81
68075;BME280;54864;52.002;5.468;2023-05-19T02:41:42;102538.81;;;9.06;77.64
68075;BME280;54864;52.002;5.468;2023-05-19T02:42:44;102537.16;;;8.99;78.31
68075;BME280;54864;52.002;5.468;2023-05-19T02:43:51;102531.97;;;8.93;78.69
68075;BME280;54864;52.002;5.468;2023-05-19T02:44:54;102530.19;;;8.95;78.65
68075;BME280;54864;52.002;5.468;2023-05-19T02:45:55;102530.13;;;9.01;78.75
68075;BME280;54864;52.002;5.468;2023-05-19T02:46:57;102531.00;;;9.00;78.86
68075;BME280;54864;52.002;5.468;2023-05-19T02:47:58;102537.09;;;9.05;78.72
68075;BME280;54864;52.002;5.468;2023-05-19T02:49:07;102518.91;;;8.85;79.21
68075;BME280;54864;52.002;5.468;2023-05-19T02:50:08;102528.44;;;8.94;78.92
68075;BME280;54864;52.002;5.468;2023-05-19T02:51:10;102526.63;;;9.00;78.18
68075;BME280;54864;52.002;5.468;2023-05-19T02:52:10;102529.53;;;8.73;79.76
68075;BME280;54864;52.002;5.468;2023-05-19T02:53:13;102524.09;;;8.91;79.36
68075;BME280;54864;52.002;5.468;2023-05-19T02:54:13;102516.19;;;8.93;79.31
68075;BME280;54864;52.002;5.468;2023-05-19T02:55:15;102525.94;;;8.81;79.35
68075;BME280;54864;52.002;5.468;2023-05-19T02:56:16;102527.75;;;8.76;80.21
68075;BME280;54864;52.002;5.468;2023-05-19T02:57:18;102525.03;;;8.85;80.01
68075;BME280;54864;52.002;5.468;2023-05-19T02:58:19;102526.66;;;8.96;79.47
68075;BME280;54864;52.002;5.468;2023-05-19T02:59:21;102517.94;;;8.92;79.05
68075;BME280;54864;52.002;5.468;2023-05-19T03:00:22;102520.50;;;8.98;78.82
68075;BME280;54864;52.002;5.468;2023-05-19T03:01:24;102522.22;;;9.01;78.93
68075;BME280;54864;52.002;5.468;2023-05-19T03:02:25;102523.06;;;9.03;78.98
68075;BME280;54864;52.002;5.468;2023-05-19T03:03:26;102516.97;;;8.99;78.75
68075;BME280;54864;52.002;5.468;2023-05-19T03:04:29;102518.75;;;8.99;78.87
68075;BME280;54864;52.002;5.468;2023-05-19T03:05:31;102523.13;;;9.00;79.26
68075;BME280;54864;52.002;5.468;2023-05-19T03:06:31;102524.00;;;8.99;79.22
68075;BME280;54864;52.002;5.468;2023-05-19T03:07:33;102519.66;;;8.96;78.74
68075;BME280;54864;52.002;5.468;2023-05-19T03:08:34;102518.00;;;8.87;79.46
68075;BME280;54864;52.002;5.468;2023-05-19T03:09:36;102515.31;;;8.92;79.71
68075;BME280;54864;52.002;5.468;2023-05-19T03:10:36;102513.69;;;8.80;79.91
68075;BME280;54864;52.002;5.468;2023-05-19T03:11:38;102510.13;;;8.84;79.94
68075;BME280;54864;52.002;5.468;2023-05-19T03:12:39;102515.44;;;8.81;80.48
68075;BME280;54864;52.002;5.468;2023-05-19T03:13:40;102517.13;;;8.87;80.29
68075;BME280;54864;52.002;5.468;2023-05-19T03:14:41;102516.22;;;8.88;79.81
68075;BME280;54864;52.002;5.468;2023-05-19T03:15:43;102511.00;;;8.86;80.42
68075;BME280;54864;52.002;5.468;2023-05-19T03:16:44;102514.47;;;8.90;80.68
68075;BME280;54864;52.002;5.468;2023-05-19T03:17:46;102512.69;;;8.92;80.02
68075;BME280;54864;52.002;5.468;2023-05-19T03:18:46;102508.25;;;8.96;79.83
68075;BME280;54864;52.002;5.468;2023-05-19T03:19:52;102510.00;;;8.97;79.47
68075;BME280;54864;52.002;5.468;2023-05-19T03:20:53;102501.22;;;8.96;79.72
68075;BME280;54864;52.002;5.468;2023-05-19T03:21:55;102510.09;;;8.89;79.74
68075;BME280;54864;52.002;5.468;2023-05-19T03:22:57;102506.59;;;8.87;80.17
68075;BME280;54864;52.002;5.468;2023-05-19T03:24:04;102508.38;;;8.86;79.88
68075;BME280;54864;52.002;5.468;2023-05-19T03:25:07;102508.47;;;8.77;80.71
68075;BME280;54864;52.002;5.468;2023-05-19T03:26:08;102506.72;;;8.78;80.73
68075;BME280;54864;52.002;5.468;2023-05-19T03:27:10;102515.50;;;8.74;81.17
68075;BME280;54864;52.002;5.468;2023-05-19T03:28:11;102511.06;;;8.80;81.34
68075;BME280;54864;52.002;5.468;2023-05-19T03:29:14;102512.81;;;8.80;81.38
68075;BME280;54864;52.002;5.468;2023-05-19T03:30:16;102512.84;;;8.78;81.57
68075;BME280;54864;52.002;5.468;2023-05-19T03:31:17;102513.69;;;8.80;81.26
68075;BME280;54864;52.002;5.468;2023-05-19T03:32:21;102512.88;;;8.74;81.13
68075;BME280;54864;52.002;5.468;2023-05-19T03:33:23;102509.50;;;8.61;81.86
68075;BME280;54864;52.002;5.468;2023-05-19T03:34:26;102511.16;;;8.73;81.64
68075;BME280;54864;52.002;5.468;2023-05-19T03:35:29;102513.72;;;8.77;81.09
68075;BME280;54864;52.002;5.468;2023-05-19T03:36:36;102513.69;;;8.80;81.20
68075;BME280;54864;52.002;5.468;2023-05-19T03:37:38;102505.84;;;8.76;81.87
68075;BME280;54864;52.002;5.468;2023-05-19T03:38:39;102515.47;;;8.77;81.70
68075;BME280;54864;52.002;5.468;2023-05-19T03:39:41;102509.41;;;8.72;81.97
68075;BME280;54864;52.002;5.468;2023-05-19T03:40:42;102509.44;;;8.69;82.19
68075;BME280;54864;52.002;5.468;2023-05-19T03:41:44;102507.59;;;8.75;81.91
68075;BME280;54864;52.002;5.468;2023-05-19T03:42:46;102502.41;;;8.69;82.26
68075;BME280;54864;52.002;5.468;2023-05-19T03:43:48;102512.13;;;8.64;82.51
68075;BME280;54864;52.002;5.468;2023-05-19T03:44:51;102506.16;;;8.44;83.70
68075;BME280;54864;52.002;5.468;2023-05-19T03:45:53;102512.16;;;8.58;83.58
68075;BME280;54864;52.002;5.468;2023-05-19T03:46:56;102504.22;;;8.64;83.33
68075;BME280;54864;52.002;5.468;2023-05-19T03:47:58;102508.59;;;8.65;83.54
68075;BME280;54864;52.002;5.468;2023-05-19T03:48:59;102501.56;;;8.67;83.23
68075;BME280;54864;52.002;5.468;2023-05-19T03:50:01;102505.97;;;8.65;83.02
68075;BME280;54864;52.002;5.468;2023-05-19T03:51:06;102507.69;;;8.69;82.90
68075;BME280;54864;52.002;5.468;2023-05-19T03:52:08;102511.34;;;8.53;83.55
68075;BME280;54864;52.002;5.468;2023-05-19T03:53:10;102509.53;;;8.60;84.12
68075;BME280;54864;52.002;5.468;2023-05-19T03:54:11;102511.16;;;8.71;83.44
68075;BME280;54864;52.002;5.468;2023-05-19T03:55:12;102510.31;;;8.69;83.16
68075;BME280;54864;52.002;5.468;2023-05-19T03:56:15;102510.25;;;8.75;83.65
68075;BME280;54864;52.002;5.468;2023-05-19T03:57:17;102505.84;;;8.76;83.36
68075;BME280;54864;52.002;5.468;2023-05-19T03:58:19;102502.25;;;8.83;83.26
68075;BME280;54864;52.002;5.468;2023-05-19T03:59:20;102511.09;;;8.77;83.21
68075;BME280;54864;52.002;5.468;2023-05-19T04:00:23;102519.00;;;8.76;83.83
68075;BME280;54864;52.002;5.468;2023-05-19T04:01:24;102516.41;;;8.71;83.79
68075;BME280;54864;52.002;5.468;2023-05-19T04:02:25;102506.75;;;8.75;84.03
68075;BME280;54864;52.002;5.468;2023-05-19T04:03:26;102517.28;;;8.72;83.70
68075;BME280;54864;52.002;5.468;2023-05-19T04:04:28;102512.88;;;8.75;83.83
68075;BME280;54864;52.002;5.468;2023-05-19T04:05:28;102517.28;;;8.73;83.90
68075;BME280;54864;52.002;5.468;2023-05-19T04:06:31;102510.31;;;8.68;84.23
68075;BME280;54864;52.002;5.468;2023-05-19T04:07:33;102517.31;;;8.69;84.24
68075;BME280;54864;52.002;5.468;2023-05-19T04:08:35;102511.16;;;8.71;84.13
68075;BME280;54864;52.002;5.468;2023-05-19T04:09:36;102510.34;;;8.65;84.46
68075;BME280;54864;52.002;5.468;2023-05-19T04:10:38;102514.72;;;8.66;84.68
68075;BME280;54864;52.002;5.468;2023-05-19T04:11:38;102511.16;;;8.73;83.79
68075;BME280;54864;52.002;5.468;2023-05-19T04:12:40;102514.75;;;8.64;84.71
68075;BME280;54864;52.002;5.468;2023-05-19T04:13:41;102511.97;;;8.78;84.33
68075;BME280;54864;52.002;5.468;2023-05-19T04:14:45;102512.00;;;8.73;84.19
68075;BME280;54864;52.002;5.468;2023-05-19T04:15:49;102520.78;;;8.74;84.40
68075;BME280;54864;52.002;5.468;2023-05-19T04:16:51;102518.06;;;8.80;83.80
68075;BME280;54864;52.002;5.468;2023-05-19T04:17:52;102517.13;;;8.85;83.44
68075;BME280;54864;52.002;5.468;2023-05-19T04:18:54;102522.41;;;8.85;83.67
68075;BME280;54864;52.002;5.468;2023-05-19T04:19:56;102515.38;;;8.87;83.41
68075;BME280;54864;52.002;5.468;2023-05-19T04:21:00;102522.44;;;8.82;83.26
68075;BME280;54864;52.002;5.468;2023-05-19T04:22:02;102518.81;;;8.93;83.96
68075;BME280;54864;52.002;5.468;2023-05-19T04:23:04;102521.41;;;8.96;83.25
68075;BME280;54864;52.002;5.468;2023-05-19T04:24:05;102518.88;;;8.88;83.14
68075;BME280;54864;52.002;5.468;2023-05-19T04:25:07;102518.88;;;8.86;83.38
68075;BME280;54864;52.002;5.468;2023-05-19T04:26:11;102519.72;;;8.90;83.64
68075;BME280;54864;52.002;5.468;2023-05-19T04:27:14;102524.97;;;8.92;83.80
68075;BME280;54864;52.002;5.468;2023-05-19T04:28:15;102517.94;;;8.94;83.12
68075;BME280;54864;52.002;5.468;2023-05-19T04:29:17;102522.34;;;8.92;83.05
68075;BME280;54864;52.002;5.468;2023-05-19T04:30:18;102522.25;;;8.98;83.03
68075;BME280;54864;52.002;5.468;2023-05-19T04:31:21;102521.47;;;8.91;83.65
68075;BME280;54864;52.002;5.468;2023-05-19T04:32:22;102517.88;;;8.98;83.20
68075;BME280;54864;52.002;5.468;2023-05-19T04:33:24;102517.78;;;9.04;82.43
68075;BME280;54864;52.002;5.468;2023-05-19T04:34:27;102523.91;;;9.08;82.19
68075;BME280;54864;52.002;5.468;2023-05-19T04:35:30;102520.38;;;9.12;82.58
68075;BME280;54864;52.002;5.468;2023-05-19T04:36:30;102525.63;;;9.13;81.90
68075;BME280;54864;52.002;5.468;2023-05-19T04:37:34;102520.44;;;9.03;82.16
68075;BME280;54864;52.002;5.468;2023-05-19T04:38:37;102526.53;;;9.11;82.71
68075;BME280;54864;52.002;5.468;2023-05-19T04:39:40;102519.53;;;9.05;82.63
68075;BME280;54864;52.002;5.468;2023-05-19T04:40:42;102522.09;;;9.14;82.18
68075;BME280;54864;52.002;5.468;2023-05-19T04:41:44;102524.75;;;9.08;81.48
68075;BME280;54864;52.002;5.468;2023-05-19T04:42:45;102521.25;;;9.11;82.16
68075;BME280;54864;52.002;5.468;2023-05-19T04:43:51;102522.88;;;9.21;81.76
68075;BME280;54864;52.002;5.468;2023-05-19T04:44:54;102518.56;;;9.17;81.76
68075;BME280;54864;52.002;5.468;2023-05-19T04:45:56;102518.53;;;9.18;81.55
68075;BME280;54864;52.002;5.468;2023-05-19T04:46:58;102520.25;;;9.23;81.17
68075;BME280;54864;52.002;5.468;2023-05-19T04:47:59;102520.25;;;9.23;80.74
68075;BME280;54864;52.002;5.468;2023-05-19T04:49:01;102529.03;;;9.21;81.50
68075;BME280;54864;52.002;5.468;2023-05-19T04:50:02;102524.69;;;9.17;81.56
68075;BME280;54864;52.002;5.468;2023-05-19T04:51:04;102526.47;;;9.15;81.80
68075;BME280;54864;52.002;5.468;2023-05-19T04:52:09;102522.94;;;9.16;81.83
68075;BME280;54864;52.002;5.468;2023-05-19T04:53:13;102521.09;;;9.25;81.47
68075;BME280;54864;52.002;5.468;2023-05-19T04:54:15;102528.94;;;9.29;81.18
68075;BME280;54864;52.002;5.468;2023-05-19T04:55:16;102531.63;;;9.23;81.75
68075;BME280;54864;52.002;5.468;2023-05-19T04:56:17;102532.59;;;9.16;81.87
68075;BME280;54864;52.002;5.468;2023-05-19T04:57:24;102533.53;;;9.10;81.75
68075;BME280;54864;52.002;5.468;2023-05-19T04:58:25;102532.56;;;9.19;81.39
68075;BME280;54864;52.002;5.468;2023-05-19T04:59:27;102542.03;;;9.34;81.07
68075;BME280;54864;52.002;5.468;2023-05-19T05:00:28;102534.13;;;9.34;80.94
68075;BME280;54864;52.002;5.468;2023-05-19T05:01:30;102527.13;;;9.33;80.98
68075;BME280;54864;52.002;5.468;2023-05-19T05:02:32;102528.81;;;9.38;80.59
68075;BME280;54864;52.002;5.468;2023-05-19T05:03:34;102524.34;;;9.43;80.82
68075;BME280;54864;52.002;5.468;2023-05-19T05:04:37;102531.28;;;9.50;80.08
68075;BME280;54864;52.002;5.468;2023-05-19T05:05:41;102537.47;;;9.46;80.13
68075;BME280;54864;52.002;5.468;2023-05-19T05:06:42;102536.56;;;9.49;80.17
68075;BME280;54864;52.002;5.468;2023-05-19T05:07:47;102532.09;;;9.56;79.86
68075;BME280;54864;52.002;5.468;2023-05-19T05:08:53;102533.91;;;9.50;80.36
68075;BME280;54864;52.002;5.468;2023-05-19T05:09:54;102540.19;;;9.40;80.65
68075;BME280;54864;52.002;5.468;2023-05-19T05:10:55;102539.16;;;9.50;80.56
68075;BME280;54864;52.002;5.468;2023-05-19T05:12:04;102539.19;;;9.49;80.62
68075;BME280;54864;52.002;5.468;2023-05-19T05:13:07;102534.56;;;9.66;80.08
68075;BME280;54864;52.002;5.468;2023-05-19T05:14:09;102531.88;;;9.69;79.10
68075;BME280;54864;52.002;5.468;2023-05-19T05:15:11;102538.88;;;9.72;79.49
68075;BME280;54864;52.002;5.468;2023-05-19T05:16:13;102533.56;;;9.78;79.27
68075;BME280;54864;52.002;5.468;2023-05-19T05:17:15;102532.72;;;9.73;79.01
68075;BME280;54864;52.002;5.468;2023-05-19T05:18:18;102537.06;;;9.78;78.56
68075;BME280;54864;52.002;5.468;2023-05-19T05:19:19;102531.78;;;9.78;78.67
68075;BME280;54864;52.002;5.468;2023-05-19T05:20:22;102533.41;;;9.87;78.27
68075;BME280;54864;52.002;5.468;2023-05-19T05:21:27;102540.34;;;9.93;78.49
68075;BME280;54864;52.002;5.468;2023-05-19T05:22:29;102537.88;;;9.82;78.25
68075;BME280;54864;52.002;5.468;2023-05-19T05:23:30;102545.94;;;9.68;79.07
68075;BME280;54864;52.002;5.468;2023-05-19T05:24:34;102533.63;;;9.70;79.11
68075;BME280;54864;52.002;5.468;2023-05-19T05:25:37;102538.91;;;9.70;78.65
68075;BME280;54864;52.002;5.468;2023-05-19T05:26:39;102540.50;;;9.83;78.68
68075;BME280;54864;52.002;5.468;2023-05-19T05:27:41;102547.47;;;9.86;78.25
68075;BME280;54864;52.002;5.468;2023-05-19T05:28:48;102536.13;;;9.81;78.84
68075;BME280;54864;52.002;5.468;2023-05-19T05:29:53;102542.28;;;9.81;79.12
68075;BME280;54864;52.002;5.468;2023-05-19T05:30:53;102537.00;;;9.81;78.73
68075;BME280;54864;52.002;5.468;2023-05-19T05:31:56;102545.84;;;9.74;79.12
68075;BME280;54864;52.002;5.468;2023-05-19T05:32:57;102533.44;;;9.85;78.85
68075;BME280;54864;52.002;5.468;2023-05-19T05:34:02;102535.22;;;9.83;78.67
68075;BME280;54864;52.002;5.468;2023-05-19T05:35:04;102536.00;;;9.90;78.92
68075;BME280;54864;52.002;5.468;2023-05-19T05:36:06;102537.84;;;9.83;78.91